createdAt,value
2022-10-09T00:05:23.602Z,0
2022-10-09T00:15:00.133Z,0
2022-10-09T00:24:36.515Z,0
2022-10-09T00:34:13.655Z,0.83
2022-10-09T00:43:51.447Z,0
2022-10-09T00:53:29.235Z,0
2022-10-09T01:03:06.704Z,0
2022-10-09T01:12:43.800Z,0
2022-10-09T01:22:20.881Z,0
2022-10-09T01:31:57.409Z,0
2022-10-09T01:41:33.536Z,0
2022-10-09T01:51:10.196Z,0
2022-10-09T02:00:47.499Z,0
2022-10-09T02:10:24.967Z,0
2022-10-09T02:20:01.778Z,0
2022-10-09T02:29:38.790Z,0
2022-10-09T02:48:52.502Z,0
2022-10-09T02:58:29.459Z,0
2022-10-09T03:08:06.066Z,0
2022-10-09T03:17:42.461Z,0
2022-10-09T03:27:19.299Z,0
2022-10-09T03:36:56.408Z,0
2022-10-09T03:46:33.341Z,0
2022-10-09T04:15:21.765Z,0
2022-10-09T04:24:58.779Z,0
2022-10-09T04:34:35.686Z,0
2022-10-09T04:44:12.435Z,0
2022-10-09T05:03:26.219Z,1.67
2022-10-09T05:13:03.123Z,5.83
2022-10-09T05:22:40.121Z,22.5
2022-10-09T05:32:16.676Z,53.33
2022-10-09T05:41:53.130Z,103.33
2022-10-09T05:51:29.804Z,150.83
2022-10-09T06:01:06.989Z,230
2022-10-09T06:10:42.614Z,282.5
2022-10-09T06:20:19.223Z,396.67
2022-10-09T06:29:56.890Z,537.5
2022-10-09T06:39:33.736Z,586.67
2022-10-09T06:49:10.725Z,715
2022-10-09T06:58:48.181Z,924.17
2022-10-09T07:08:25.924Z,1008.33
2022-10-09T07:18:03.337Z,1192.5
2022-10-09T07:27:40.481Z,1313.33
2022-10-09T07:37:17.373Z,1395
2022-10-09T07:46:54.964Z,2032.5
2022-10-09T07:56:33.265Z,1877.5
2022-10-09T08:06:10.779Z,2395
2022-10-09T08:15:48.181Z,2141.67
2022-10-09T08:25:26.873Z,3930.83
2022-10-09T08:35:04.681Z,3830.83
2022-10-09T08:44:42.771Z,3080.83
2022-10-09T08:54:19.752Z,1484.17
2022-10-09T09:03:53.699Z,1444.17
2022-10-09T09:13:30.739Z,523.33
2022-10-09T09:23:08.450Z,1476.67
2022-10-09T09:32:45.915Z,1551.67
2022-10-09T09:42:23.031Z,1624.17
2022-10-09T09:52:00.449Z,1737.5
2022-10-09T10:01:38.885Z,1846.67
2022-10-09T10:11:17.357Z,1975.83
2022-10-09T10:20:56.319Z,2212.5
2022-10-09T10:31:00.894Z,54612.5
2022-10-09T10:40:57.569Z,54612.5
2022-10-09T10:50:43.674Z,54612.5
2022-10-09T11:10:07.602Z,54612.5
2022-10-09T11:19:48.054Z,54612.5
2022-10-09T11:29:27.954Z,54612.5
2022-10-09T11:39:07.666Z,54612.5
2022-10-09T11:48:47.272Z,54612.5
2022-10-09T11:58:25.222Z,54612.5
2022-10-09T12:08:05.384Z,54612.5
2022-10-09T12:17:42.699Z,54612.5
2022-10-09T12:27:22.328Z,54612.5
2022-10-09T12:37:00.311Z,54612.5
2022-10-09T12:46:38.131Z,54612.5
2022-10-09T13:05:55.764Z,54612.5
2022-10-09T13:15:34.876Z,54612.5
2022-10-09T13:25:13.619Z,54612.5
2022-10-09T13:34:51.629Z,54612.5
2022-10-09T13:44:29.268Z,54612.5
2022-10-09T14:03:44.294Z,46427.5
2022-10-09T14:13:21.334Z,40767.5
2022-10-09T14:22:58.646Z,36566.66
2022-10-09T14:42:17.421Z,35980
2022-10-09T14:51:46.708Z,17549.17
2022-10-09T15:01:09.351Z,21366.67
2022-10-09T15:10:44.527Z,6212.5
2022-10-09T15:20:11.489Z,3013.33
2022-10-09T15:29:37.768Z,1138.33
2022-10-09T15:39:10.228Z,927.5
2022-10-09T15:48:44.676Z,781.67
2022-10-09T15:58:18.720Z,619.17
2022-10-09T16:07:55.899Z,478.33
2022-10-09T16:27:06.250Z,202.5
2022-10-09T16:36:42.180Z,94.17
2022-10-09T16:46:18.517Z,31.67
2022-10-09T16:55:54.474Z,6.67
2022-10-09T17:15:06.706Z,0
2022-10-09T17:24:42.792Z,0.83
2022-10-09T17:34:18.746Z,0
2022-10-09T17:43:55.460Z,0
2022-10-09T17:53:31.376Z,0
2022-10-09T18:03:07.701Z,0
2022-10-09T18:12:43.887Z,0
2022-10-09T18:22:20.306Z,0
2022-10-09T18:31:56.939Z,0
2022-10-09T18:41:33.615Z,0
2022-10-09T18:51:09.805Z,0
2022-10-09T19:00:46.354Z,0
2022-10-09T19:10:22.619Z,0
2022-10-09T19:19:59.354Z,0
2022-10-09T19:29:34.778Z,0
2022-10-09T19:39:11.871Z,0
2022-10-09T19:48:48.384Z,0
2022-10-09T19:58:25.308Z,0
2022-10-09T20:08:01.664Z,0
2022-10-09T20:27:15.261Z,0
2022-10-09T20:36:52.156Z,0
2022-10-09T20:46:29.076Z,0
2022-10-09T21:05:42.898Z,0
2022-10-09T21:24:55.800Z,0
2022-10-09T21:34:31.974Z,0
2022-10-09T21:44:08.781Z,0
2022-10-09T21:53:45.335Z,0
2022-10-09T22:03:21.978Z,0
2022-10-09T22:12:58.167Z,0
2022-10-09T22:22:35.124Z,0
2022-10-09T22:32:11.915Z,0
2022-10-09T22:41:48.368Z,0
2022-10-09T22:51:25.483Z,0
2022-10-09T23:01:01.944Z,0
2022-10-09T23:10:38.718Z,0
2022-10-09T23:20:15.364Z,0
2022-10-09T23:29:52.032Z,0
2022-10-09T23:39:28.898Z,0
2022-10-09T23:49:07.231Z,0
2022-10-09T23:58:42.707Z,0
